sensor_id;sensor_type;location;lat;lon;timestamp;temperature;humidity
9980;DHT22;5030;51.532;6.766;2022-12-18T00:02:17;-8.80;99.90
9980;DHT22;5030;51.532;6.766;2022-12-18T00:04:43;-8.80;99.90
9980;DHT22;5030;51.532;6.766;2022-12-18T00:07:09;-8.90;99.90
9980;DHT22;5030;51.532;6.766;2022-12-18T00:09:34;-8.90;99.90
9980;DHT22;5030;51.532;6.766;2022-12-18T00:12:00;-9.00;99.90
9980;DHT22;5030;51.532;6.766;2022-12-18T00:14:26;-9.00;99.90
9980;DHT22;5030;51.532;6.766;2022-12-18T00:16:51;-9.00;99.90
9980;DHT22;5030;51.532;6.766;2022-12-18T00:19:17;-8.80;99.90
9980;DHT22;5030;51.532;6.766;2022-12-18T00:21:43;-9.00;99.90
9980;DHT22;5030;51.532;6.766;2022-12-18T00:24:10;-9.00;99.90
9980;DHT22;5030;51.532;6.766;2022-12-18T00:26:37;-9.00;99.90
9980;DHT22;5030;51.532;6.766;2022-12-18T00:29:12;-9.10;99.90
9980;DHT22;5030;51.532;6.766;2022-12-18T00:31:39;-9.10;99.90
9980;DHT22;5030;51.532;6.766;2022-12-18T00:34:05;-9.20;99.90
9980;DHT22;5030;51.532;6.766;2022-12-18T00:36:34;-9.10;99.90
9980;DHT22;5030;51.532;6.766;2022-12-18T00:39:01;-8.90;99.90
9980;DHT22;5030;51.532;6.766;2022-12-18T00:41:28;-8.80;99.90
9980;DHT22;5030;51.532;6.766;2022-12-18T00:44:15;-8.90;99.90
9980;DHT22;5030;51.532;6.766;2022-12-18T00:46:42;-8.90;99.90
9980;DHT22;5030;51.532;6.766;2022-12-18T00:49:08;-8.70;99.90
9980;DHT22;5030;51.532;6.766;2022-12-18T00:51:34;-8.40;99.90
9980;DHT22;5030;51.532;6.766;2022-12-18T00:53:59;-8.30;99.90
9980;DHT22;5030;51.532;6.766;2022-12-18T00:56:25;-8.40;99.90
9980;DHT22;5030;51.532;6.766;2022-12-18T00:58:51;-8.60;99.90
9980;DHT22;5030;51.532;6.766;2022-12-18T01:01:17;-8.80;99.90
9980;DHT22;5030;51.532;6.766;2022-12-18T01:03:43;-8.90;99.90
9980;DHT22;5030;51.532;6.766;2022-12-18T01:06:11;-9.00;99.90
9980;DHT22;5030;51.532;6.766;2022-12-18T01:08:37;-9.00;99.90
9980;DHT22;5030;51.532;6.766;2022-12-18T01:11:15;-9.10;99.90
9980;DHT22;5030;51.532;6.766;2022-12-18T01:13:41;-9.10;99.90
9980;DHT22;5030;51.532;6.766;2022-12-18T01:16:07;-9.10;99.90
9980;DHT22;5030;51.532;6.766;2022-12-18T01:18:34;-9.10;99.90
9980;DHT22;5030;51.532;6.766;2022-12-18T01:21:00;-9.10;99.90
9980;DHT22;5030;51.532;6.766;2022-12-18T01:23:29;-9.20;99.90
9980;DHT22;5030;51.532;6.766;2022-12-18T01:25:54;-9.20;99.90
9980;DHT22;5030;51.532;6.766;2022-12-18T01:28:20;-9.30;99.90
9980;DHT22;5030;51.532;6.766;2022-12-18T01:30:45;-9.20;99.90
9980;DHT22;5030;51.532;6.766;2022-12-18T01:33:11;-9.30;99.90
9980;DHT22;5030;51.532;6.766;2022-12-18T01:35:43;-9.20;99.90
9980;DHT22;5030;51.532;6.766;2022-12-18T01:38:09;-9.20;99.90
9980;DHT22;5030;51.532;6.766;2022-12-18T01:40:35;-9.20;99.90
9980;DHT22;5030;51.532;6.766;2022-12-18T01:43:00;-9.20;99.90
9980;DHT22;5030;51.532;6.766;2022-12-18T01:45:28;-9.20;99.90
9980;DHT22;5030;51.532;6.766;2022-12-18T01:48:05;-9.20;99.90
9980;DHT22;5030;51.532;6.766;2022-12-18T01:50:42;-9.20;99.90
9980;DHT22;5030;51.532;6.766;2022-12-18T01:53:14;-9.20;99.90
9980;DHT22;5030;51.532;6.766;2022-12-18T01:55:44;-9.20;99.90
9980;DHT22;5030;51.532;6.766;2022-12-18T01:58:10;-9.30;99.90
9980;DHT22;5030;51.532;6.766;2022-12-18T02:00:36;-9.30;99.90
9980;DHT22;5030;51.532;6.766;2022-12-18T02:03:02;-9.40;99.90
9980;DHT22;5030;51.532;6.766;2022-12-18T02:05:44;-9.30;99.90
9980;DHT22;5030;51.532;6.766;2022-12-18T02:08:25;-9.30;99.90
9980;DHT22;5030;51.532;6.766;2022-12-18T02:18:49;-9.20;99.90
9980;DHT22;5030;51.532;6.766;2022-12-18T02:24:35;-9.10;99.90
9980;DHT22;5030;51.532;6.766;2022-12-18T02:27:05;-9.20;99.90
9980;DHT22;5030;51.532;6.766;2022-12-18T02:29:37;-9.20;99.90
9980;DHT22;5030;51.532;6.766;2022-12-18T02:32:08;-9.30;99.90
9980;DHT22;5030;51.532;6.766;2022-12-18T02:34:37;-9.30;99.90
9980;DHT22;5030;51.532;6.766;2022-12-18T02:37:06;-9.30;99.90
9980;DHT22;5030;51.532;6.766;2022-12-18T02:39:36;-9.20;99.90
9980;DHT22;5030;51.532;6.766;2022-12-18T02:42:02;-9.30;99.90
9980;DHT22;5030;51.532;6.766;2022-12-18T02:44:43;-9.30;99.90
9980;DHT22;5030;51.532;6.766;2022-12-18T02:47:13;-9.50;99.90
9980;DHT22;5030;51.532;6.766;2022-12-18T03:00:01;-9.60;99.90
9980;DHT22;5030;51.532;6.766;2022-12-18T03:02:48;-9.60;99.90
9980;DHT22;5030;51.532;6.766;2022-12-18T03:05:30;-9.60;99.90
9980;DHT22;5030;51.532;6.766;2022-12-18T03:10:27;-9.60;99.90
9980;DHT22;5030;51.532;6.766;2022-12-18T03:13:08;-9.50;99.90
9980;DHT22;5030;51.532;6.766;2022-12-18T03:15:41;-9.60;99.90
9980;DHT22;5030;51.532;6.766;2022-12-18T03:18:21;-9.50;99.90
9980;DHT22;5030;51.532;6.766;2022-12-18T03:20:49;-9.30;99.90
9980;DHT22;5030;51.532;6.766;2022-12-18T03:23:21;-9.20;99.90
9980;DHT22;5030;51.532;6.766;2022-12-18T03:25:51;-9.00;99.90
9980;DHT22;5030;51.532;6.766;2022-12-18T03:28:21;-8.90;99.90
9980;DHT22;5030;51.532;6.766;2022-12-18T03:30:51;-8.80;99.90
9980;DHT22;5030;51.532;6.766;2022-12-18T03:33:55;-8.90;99.90
9980;DHT22;5030;51.532;6.766;2022-12-18T03:36:22;-8.90;99.90
9980;DHT22;5030;51.532;6.766;2022-12-18T03:38:48;-8.80;99.90
9980;DHT22;5030;51.532;6.766;2022-12-18T03:52:01;-8.80;99.90
9980;DHT22;5030;51.532;6.766;2022-12-18T03:54:29;-8.70;99.90
9980;DHT22;5030;51.532;6.766;2022-12-18T03:57:00;-8.70;99.90
9980;DHT22;5030;51.532;6.766;2022-12-18T03:59:28;-8.70;99.90
9980;DHT22;5030;51.532;6.766;2022-12-18T04:01:55;-8.80;99.90
9980;DHT22;5030;51.532;6.766;2022-12-18T04:04:24;-9.00;99.90
9980;DHT22;5030;51.532;6.766;2022-12-18T04:06:51;-9.10;99.90
9980;DHT22;5030;51.532;6.766;2022-12-18T04:09:18;-9.20;99.90
9980;DHT22;5030;51.532;6.766;2022-12-18T04:11:46;-9.20;99.90
9980;DHT22;5030;51.532;6.766;2022-12-18T04:14:11;-9.30;99.90
9980;DHT22;5030;51.532;6.766;2022-12-18T04:16:37;-9.30;99.90
9980;DHT22;5030;51.532;6.766;2022-12-18T04:19:05;-9.30;99.90
9980;DHT22;5030;51.532;6.766;2022-12-18T04:21:30;-9.20;99.90
9980;DHT22;5030;51.532;6.766;2022-12-18T04:23:56;-9.30;99.90
9980;DHT22;5030;51.532;6.766;2022-12-18T04:26:22;-9.40;99.90
9980;DHT22;5030;51.532;6.766;2022-12-18T04:28:48;-9.40;99.90
9980;DHT22;5030;51.532;6.766;2022-12-18T04:31:14;-9.40;99.90
9980;DHT22;5030;51.532;6.766;2022-12-18T04:33:40;-9.30;99.90
9980;DHT22;5030;51.532;6.766;2022-12-18T04:36:06;-9.20;99.90
9980;DHT22;5030;51.532;6.766;2022-12-18T04:38:31;-9.00;99.90
9980;DHT22;5030;51.532;6.766;2022-12-18T04:40:57;-8.90;99.90
9980;DHT22;5030;51.532;6.766;2022-12-18T04:43:23;-9.00;99.90
9980;DHT22;5030;51.532;6.766;2022-12-18T04:45:49;-9.10;99.90
9980;DHT22;5030;51.532;6.766;2022-12-18T04:48:16;-9.20;99.90
9980;DHT22;5030;51.532;6.766;2022-12-18T04:50:41;-9.40;99.90
9980;DHT22;5030;51.532;6.766;2022-12-18T04:53:07;-9.40;99.90
9980;DHT22;5030;51.532;6.766;2022-12-18T04:55:33;-9.40;99.90
9980;DHT22;5030;51.532;6.766;2022-12-18T04:57:58;-9.40;99.90
9980;DHT22;5030;51.532;6.766;2022-12-18T05:00:24;-9.50;99.90
9980;DHT22;5030;51.532;6.766;2022-12-18T05:02:49;-9.40;99.90
9980;DHT22;5030;51.532;6.766;2022-12-18T05:05:15;-9.50;99.90
9980;DHT22;5030;51.532;6.766;2022-12-18T05:07:41;-9.40;99.90
9980;DHT22;5030;51.532;6.766;2022-12-18T05:10:07;-9.40;99.90
9980;DHT22;5030;51.532;6.766;2022-12-18T05:12:33;-9.50;99.90
9980;DHT22;5030;51.532;6.766;2022-12-18T05:14:58;-9.50;99.90
9980;DHT22;5030;51.532;6.766;2022-12-18T05:17:24;-9.50;99.90
9980;DHT22;5030;51.532;6.766;2022-12-18T05:19:50;-9.60;99.90
9980;DHT22;5030;51.532;6.766;2022-12-18T05:22:15;-9.60;99.90
9980;DHT22;5030;51.532;6.766;2022-12-18T05:24:42;-9.60;99.90
9980;DHT22;5030;51.532;6.766;2022-12-18T05:27:08;-9.60;99.90
9980;DHT22;5030;51.532;6.766;2022-12-18T05:29:33;-9.70;99.90
9980;DHT22;5030;51.532;6.766;2022-12-18T05:31:59;-9.40;99.90
9980;DHT22;5030;51.532;6.766;2022-12-18T05:34:25;-9.20;99.90
9980;DHT22;5030;51.532;6.766;2022-12-18T05:36:50;-8.90;99.90
9980;DHT22;5030;51.532;6.766;2022-12-18T05:39:17;-8.80;99.90
9980;DHT22;5030;51.532;6.766;2022-12-18T05:41:43;-8.80;99.90
9980;DHT22;5030;51.532;6.766;2022-12-18T05:44:08;-8.90;99.90
9980;DHT22;5030;51.532;6.766;2022-12-18T05:46:34;-9.00;99.90
9980;DHT22;5030;51.532;6.766;2022-12-18T05:49:00;-9.00;99.90
9980;DHT22;5030;51.532;6.766;2022-12-18T05:51:29;-9.00;99.90
9980;DHT22;5030;51.532;6.766;2022-12-18T05:53:55;-9.10;99.90
9980;DHT22;5030;51.532;6.766;2022-12-18T05:56:21;-9.10;99.90
9980;DHT22;5030;51.532;6.766;2022-12-18T05:58:50;-9.20;99.90
9980;DHT22;5030;51.532;6.766;2022-12-18T06:01:18;-9.40;99.90
9980;DHT22;5030;51.532;6.766;2022-12-18T06:03:44;-9.50;99.90
9980;DHT22;5030;51.532;6.766;2022-12-18T06:06:21;-9.50;99.90
9980;DHT22;5030;51.532;6.766;2022-12-18T06:08:47;-9.60;99.90
9980;DHT22;5030;51.532;6.766;2022-12-18T06:11:17;-9.60;99.90
9980;DHT22;5030;51.532;6.766;2022-12-18T06:13:43;-9.60;99.90
9980;DHT22;5030;51.532;6.766;2022-12-18T06:16:08;-9.70;99.90
9980;DHT22;5030;51.532;6.766;2022-12-18T06:18:38;-9.80;99.90
9980;DHT22;5030;51.532;6.766;2022-12-18T06:21:04;-9.80;99.90
9980;DHT22;5030;51.532;6.766;2022-12-18T06:23:29;-9.70;99.90
9980;DHT22;5030;51.532;6.766;2022-12-18T06:25:55;-9.60;99.90
9980;DHT22;5030;51.532;6.766;2022-12-18T06:28:21;-9.60;99.90
9980;DHT22;5030;51.532;6.766;2022-12-18T06:30:47;-9.70;99.90
9980;DHT22;5030;51.532;6.766;2022-12-18T06:33:14;-9.70;99.90
9980;DHT22;5030;51.532;6.766;2022-12-18T06:35:40;-9.70;99.90
9980;DHT22;5030;51.532;6.766;2022-12-18T06:38:06;-9.50;99.90
9980;DHT22;5030;51.532;6.766;2022-12-18T06:40:32;-9.40;99.90
9980;DHT22;5030;51.532;6.766;2022-12-18T06:42:59;-9.40;99.90
9980;DHT22;5030;51.532;6.766;2022-12-18T06:45:24;-9.30;99.90
9980;DHT22;5030;51.532;6.766;2022-12-18T06:47:51;-9.30;99.90
9980;DHT22;5030;51.532;6.766;2022-12-18T06:50:16;-9.30;99.90
9980;DHT22;5030;51.532;6.766;2022-12-18T06:52:42;-9.20;99.90
9980;DHT22;5030;51.532;6.766;2022-12-18T06:55:10;-9.20;99.90
9980;DHT22;5030;51.532;6.766;2022-12-18T06:57:36;-9.20;99.90
9980;DHT22;5030;51.532;6.766;2022-12-18T07:00:02;-9.00;99.90
9980;DHT22;5030;51.532;6.766;2022-12-18T07:02:28;-8.90;99.90
9980;DHT22;5030;51.532;6.766;2022-12-18T07:04:54;-8.80;99.90
9980;DHT22;5030;51.532;6.766;2022-12-18T07:07:19;-8.70;99.90
9980;DHT22;5030;51.532;6.766;2022-12-18T07:09:45;-8.60;99.90
9980;DHT22;5030;51.532;6.766;2022-12-18T07:12:10;-8.50;99.90
9980;DHT22;5030;51.532;6.766;2022-12-18T07:14:36;-8.50;99.90
9980;DHT22;5030;51.532;6.766;2022-12-18T07:17:01;-8.50;99.90
9980;DHT22;5030;51.532;6.766;2022-12-18T07:19:27;-8.50;99.90
9980;DHT22;5030;51.532;6.766;2022-12-18T07:21:53;-8.60;99.90
9980;DHT22;5030;51.532;6.766;2022-12-18T07:24:18;-8.60;99.90
9980;DHT22;5030;51.532;6.766;2022-12-18T07:26:47;-8.70;99.90
9980;DHT22;5030;51.532;6.766;2022-12-18T07:29:13;-8.60;99.90
9980;DHT22;5030;51.532;6.766;2022-12-18T07:31:39;-8.60;99.90
9980;DHT22;5030;51.532;6.766;2022-12-18T07:34:04;-8.60;99.90
9980;DHT22;5030;51.532;6.766;2022-12-18T07:36:30;-8.50;99.90
9980;DHT22;5030;51.532;6.766;2022-12-18T07:38:55;-8.50;99.90
9980;DHT22;5030;51.532;6.766;2022-12-18T07:41:21;-8.50;99.90
9980;DHT22;5030;51.532;6.766;2022-12-18T07:43:47;-8.40;99.90
9980;DHT22;5030;51.532;6.766;2022-12-18T07:46:14;-8.50;99.90
9980;DHT22;5030;51.532;6.766;2022-12-18T07:48:42;-8.60;99.90
9980;DHT22;5030;51.532;6.766;2022-12-18T07:51:08;-8.60;99.90
9980;DHT22;5030;51.532;6.766;2022-12-18T07:53:35;-8.70;99.90
9980;DHT22;5030;51.532;6.766;2022-12-18T07:56:03;-8.80;99.90
9980;DHT22;5030;51.532;6.766;2022-12-18T07:58:30;-8.90;99.90
9980;DHT22;5030;51.532;6.766;2022-12-18T08:01:09;-8.90;99.90
9980;DHT22;5030;51.532;6.766;2022-12-18T08:03:36;-8.90;99.90
9980;DHT22;5030;51.532;6.766;2022-12-18T08:06:03;-8.90;99.90
9980;DHT22;5030;51.532;6.766;2022-12-18T08:08:30;-8.90;99.90
9980;DHT22;5030;51.532;6.766;2022-12-18T08:10:56;-8.50;99.90
9980;DHT22;5030;51.532;6.766;2022-12-18T08:13:22;-8.40;99.90
9980;DHT22;5030;51.532;6.766;2022-12-18T08:16:02;-8.30;99.90
9980;DHT22;5030;51.532;6.766;2022-12-18T08:18:28;-8.20;99.90
9980;DHT22;5030;51.532;6.766;2022-12-18T08:20:55;-8.00;99.90
9980;DHT22;5030;51.532;6.766;2022-12-18T08:23:20;-7.90;99.90
9980;DHT22;5030;51.532;6.766;2022-12-18T08:25:46;-7.80;99.90
9980;DHT22;5030;51.532;6.766;2022-12-18T08:28:13;-7.60;99.90
9980;DHT22;5030;51.532;6.766;2022-12-18T08:30:38;-7.50;99.90
9980;DHT22;5030;51.532;6.766;2022-12-18T08:33:04;-7.40;99.90
9980;DHT22;5030;51.532;6.766;2022-12-18T08:35:35;-7.20;99.90
9980;DHT22;5030;51.532;6.766;2022-12-18T08:38:01;-7.10;99.90
9980;DHT22;5030;51.532;6.766;2022-12-18T08:40:27;-7.00;99.90
9980;DHT22;5030;51.532;6.766;2022-12-18T08:42:52;-6.90;99.90
9980;DHT22;5030;51.532;6.766;2022-12-18T08:45:36;-6.80;99.90
9980;DHT22;5030;51.532;6.766;2022-12-18T08:48:02;-6.70;99.90
9980;DHT22;5030;51.532;6.766;2022-12-18T08:50:28;-6.60;99.90
9980;DHT22;5030;51.532;6.766;2022-12-18T08:52:53;-6.60;99.90
9980;DHT22;5030;51.532;6.766;2022-12-18T08:55:19;-6.60;99.90
9980;DHT22;5030;51.532;6.766;2022-12-18T08:57:48;-6.60;99.90
9980;DHT22;5030;51.532;6.766;2022-12-18T09:00:14;-6.60;99.90
9980;DHT22;5030;51.532;6.766;2022-12-18T09:02:40;-6.50;99.90
9980;DHT22;5030;51.532;6.766;2022-12-18T09:05:06;-6.50;99.90
9980;DHT22;5030;51.532;6.766;2022-12-18T09:07:32;-6.40;99.90
9980;DHT22;5030;51.532;6.766;2022-12-18T09:09:59;-6.40;99.90
9980;DHT22;5030;51.532;6.766;2022-12-18T09:12:24;-6.30;99.90
9980;DHT22;5030;51.532;6.766;2022-12-18T09:14:50;-6.30;99.90
9980;DHT22;5030;51.532;6.766;2022-12-18T09:17:16;-6.20;99.90
9980;DHT22;5030;51.532;6.766;2022-12-18T09:19:42;-6.20;99.90
9980;DHT22;5030;51.532;6.766;2022-12-18T09:22:07;-6.10;99.90
9980;DHT22;5030;51.532;6.766;2022-12-18T09:24:33;-6.10;99.90
9980;DHT22;5030;51.532;6.766;2022-12-18T09:26:58;-6.10;99.90
9980;DHT22;5030;51.532;6.766;2022-12-18T09:29:25;-6.00;99.90
9980;DHT22;5030;51.532;6.766;2022-12-18T09:31:51;-5.90;99.90
9980;DHT22;5030;51.532;6.766;2022-12-18T09:34:16;-5.90;99.90
9980;DHT22;5030;51.532;6.766;2022-12-18T09:36:42;-5.80;99.90
9980;DHT22;5030;51.532;6.766;2022-12-18T09:39:08;-5.70;99.90
9980;DHT22;5030;51.532;6.766;2022-12-18T09:49:29;-5.30;99.90
9980;DHT22;5030;51.532;6.766;2022-12-18T09:52:14;-5.20;99.90
9980;DHT22;5030;51.532;6.766;2022-12-18T09:54:48;-5.10;99.90
9980;DHT22;5030;51.532;6.766;2022-12-18T09:57:18;-5.00;99.90
9980;DHT22;5030;51.532;6.766;2022-12-18T09:59:48;-4.70;99.90
9980;DHT22;5030;51.532;6.766;2022-12-18T10:02:24;-4.40;99.90
9980;DHT22;5030;51.532;6.766;2022-12-18T10:05:14;-4.20;99.90
9980;DHT22;5030;51.532;6.766;2022-12-18T10:10:25;-3.80;99.90
9980;DHT22;5030;51.532;6.766;2022-12-18T10:13:02;-3.70;99.90
9980;DHT22;5030;51.532;6.766;2022-12-18T10:15:34;-3.60;99.90
9980;DHT22;5030;51.532;6.766;2022-12-18T10:21:05;-3.40;99.90
9980;DHT22;5030;51.532;6.766;2022-12-18T10:25:57;-3.20;99.90
9980;DHT22;5030;51.532;6.766;2022-12-18T10:28:26;-3.10;99.90
9980;DHT22;5030;51.532;6.766;2022-12-18T10:30:52;-2.90;99.90
9980;DHT22;5030;51.532;6.766;2022-12-18T10:33:22;-2.80;99.90
9980;DHT22;5030;51.532;6.766;2022-12-18T10:35:51;-2.70;99.90
9980;DHT22;5030;51.532;6.766;2022-12-18T10:40:59;-2.50;99.90
9980;DHT22;5030;51.532;6.766;2022-12-18T10:51:06;-1.90;99.90
9980;DHT22;5030;51.532;6.766;2022-12-18T10:53:33;-1.90;99.90
9980;DHT22;5030;51.532;6.766;2022-12-18T10:56:04;-1.80;99.90
9980;DHT22;5030;51.532;6.766;2022-12-18T10:58:35;-1.70;99.90
9980;DHT22;5030;51.532;6.766;2022-12-18T11:06:17;-1.60;99.90
9980;DHT22;5030;51.532;6.766;2022-12-18T11:09:03;-1.60;99.90
9980;DHT22;5030;51.532;6.766;2022-12-18T11:11:30;-1.50;99.90
9980;DHT22;5030;51.532;6.766;2022-12-18T11:14:05;-1.30;99.90
9980;DHT22;5030;51.532;6.766;2022-12-18T11:16:42;-1.20;99.90
9980;DHT22;5030;51.532;6.766;2022-12-18T11:22:01;-1.00;99.90
9980;DHT22;5030;51.532;6.766;2022-12-18T11:24:33;-1.10;99.90
9980;DHT22;5030;51.532;6.766;2022-12-18T11:27:04;-1.00;99.90
9980;DHT22;5030;51.532;6.766;2022-12-18T11:29:39;-0.90;99.90
9980;DHT22;5030;51.532;6.766;2022-12-18T11:34:42;-0.80;99.90
9980;DHT22;5030;51.532;6.766;2022-12-18T11:37:11;-0.60;99.90
9980;DHT22;5030;51.532;6.766;2022-12-18T11:44:58;-0.40;99.90
9980;DHT22;5030;51.532;6.766;2022-12-18T11:48:04;-0.30;99.90
9980;DHT22;5030;51.532;6.766;2022-12-18T11:53:12;0.00;99.90
9980;DHT22;5030;51.532;6.766;2022-12-18T12:14:46;0.80;99.90
9980;DHT22;5030;51.532;6.766;2022-12-18T12:17:25;0.90;99.90
9980;DHT22;5030;51.532;6.766;2022-12-18T12:23:00;1.00;99.90
9980;DHT22;5030;51.532;6.766;2022-12-18T12:29:09;1.20;99.90
9980;DHT22;5030;51.532;6.766;2022-12-18T12:34:33;1.20;99.90
9980;DHT22;5030;51.532;6.766;2022-12-18T12:37:15;1.20;99.90
9980;DHT22;5030;51.532;6.766;2022-12-18T12:39:44;1.20;99.90
9980;DHT22;5030;51.532;6.766;2022-12-18T12:45:16;1.10;99.90
9980;DHT22;5030;51.532;6.766;2022-12-18T12:47:44;1.10;99.90
9980;DHT22;5030;51.532;6.766;2022-12-18T12:50:17;1.20;99.90
9980;DHT22;5030;51.532;6.766;2022-12-18T12:52:50;1.40;98.90
9980;DHT22;5030;51.532;6.766;2022-12-18T12:55:27;1.40;98.20
9980;DHT22;5030;51.532;6.766;2022-12-18T13:06:07;1.40;97.40
9980;DHT22;5030;51.532;6.766;2022-12-18T13:08:53;1.40;95.50
9980;DHT22;5030;51.532;6.766;2022-12-18T13:11:48;1.40;94.80
9980;DHT22;5030;51.532;6.766;2022-12-18T13:14:38;1.30;97.30
9980;DHT22;5030;51.532;6.766;2022-12-18T13:20:02;1.40;93.00
9980;DHT22;5030;51.532;6.766;2022-12-18T13:22:34;1.40;92.40
9980;DHT22;5030;51.532;6.766;2022-12-18T13:25:00;1.40;90.80
9980;DHT22;5030;51.532;6.766;2022-12-18T13:35:52;1.40;87.70
9980;DHT22;5030;51.532;6.766;2022-12-18T13:41:02;1.50;84.00
9980;DHT22;5030;51.532;6.766;2022-12-18T13:43:41;1.30;88.60
9980;DHT22;5030;51.532;6.766;2022-12-18T13:48:55;1.30;89.00
9980;DHT22;5030;51.532;6.766;2022-12-18T13:51:22;1.40;88.10
9980;DHT22;5030;51.532;6.766;2022-12-18T13:53:51;1.30;89.00
9980;DHT22;5030;51.532;6.766;2022-12-18T13:56:26;1.30;90.30
9980;DHT22;5030;51.532;6.766;2022-12-18T14:01:59;1.40;86.10
9980;DHT22;5030;51.532;6.766;2022-12-18T14:07:01;1.30;85.80
9980;DHT22;5030;51.532;6.766;2022-12-18T14:09:34;1.20;86.80
9980;DHT22;5030;51.532;6.766;2022-12-18T14:12:01;1.10;90.40
9980;DHT22;5030;51.532;6.766;2022-12-18T14:14:48;1.20;90.30
9980;DHT22;5030;51.532;6.766;2022-12-18T14:17:14;1.20;91.00
9980;DHT22;5030;51.532;6.766;2022-12-18T14:19:46;1.20;90.00
9980;DHT22;5030;51.532;6.766;2022-12-18T14:22:20;1.00;90.80
9980;DHT22;5030;51.532;6.766;2022-12-18T14:24:47;1.20;90.50
9980;DHT22;5030;51.532;6.766;2022-12-18T14:27:25;1.20;89.20
9980;DHT22;5030;51.532;6.766;2022-12-18T14:29:51;1.20;89.40
9980;DHT22;5030;51.532;6.766;2022-12-18T14:32:19;1.20;87.70
9980;DHT22;5030;51.532;6.766;2022-12-18T14:37:17;1.00;90.80
9980;DHT22;5030;51.532;6.766;2022-12-18T14:40:01;1.00;91.30
9980;DHT22;5030;51.532;6.766;2022-12-18T14:42:28;1.10;90.00
9980;DHT22;5030;51.532;6.766;2022-12-18T14:47:58;1.20;84.20
9980;DHT22;5030;51.532;6.766;2022-12-18T14:50:23;1.20;81.30
9980;DHT22;5030;51.532;6.766;2022-12-18T14:52:49;1.20;83.50
9980;DHT22;5030;51.532;6.766;2022-12-18T14:55:19;1.10;81.90
9980;DHT22;5030;51.532;6.766;2022-12-18T14:57:52;1.10;84.20
9980;DHT22;5030;51.532;6.766;2022-12-18T15:00:21;1.10;82.20
9980;DHT22;5030;51.532;6.766;2022-12-18T15:02:55;1.10;83.20
9980;DHT22;5030;51.532;6.766;2022-12-18T15:05:29;1.10;83.70
9980;DHT22;5030;51.532;6.766;2022-12-18T15:07:58;1.10;83.60
9980;DHT22;5030;51.532;6.766;2022-12-18T15:10:29;0.90;86.90
9980;DHT22;5030;51.532;6.766;2022-12-18T15:20:45;0.90;87.60
9980;DHT22;5030;51.532;6.766;2022-12-18T15:23:23;0.70;88.30
9980;DHT22;5030;51.532;6.766;2022-12-18T15:26:10;0.80;88.20
9980;DHT22;5030;51.532;6.766;2022-12-18T15:28:39;0.80;88.90
9980;DHT22;5030;51.532;6.766;2022-12-18T15:33:42;0.70;89.50
9980;DHT22;5030;51.532;6.766;2022-12-18T15:36:13;0.70;91.00
9980;DHT22;5030;51.532;6.766;2022-12-18T15:38:40;0.70;91.50
9980;DHT22;5030;51.532;6.766;2022-12-18T15:41:06;0.80;89.40
9980;DHT22;5030;51.532;6.766;2022-12-18T15:43:37;0.80;89.90
9980;DHT22;5030;51.532;6.766;2022-12-18T15:46:11;0.80;91.00
9980;DHT22;5030;51.532;6.766;2022-12-18T15:48:45;0.90;89.20
9980;DHT22;5030;51.532;6.766;2022-12-18T15:51:27;0.90;86.10
9980;DHT22;5030;51.532;6.766;2022-12-18T15:53:56;0.80;87.00
9980;DHT22;5030;51.532;6.766;2022-12-18T15:56:22;0.80;88.00
9980;DHT22;5030;51.532;6.766;2022-12-18T15:59:12;0.80;87.40
9980;DHT22;5030;51.532;6.766;2022-12-18T16:01:38;0.80;90.20
9980;DHT22;5030;51.532;6.766;2022-12-18T16:04:04;0.70;91.20
9980;DHT22;5030;51.532;6.766;2022-12-18T16:06:29;0.70;91.20
9980;DHT22;5030;51.532;6.766;2022-12-18T16:08:55;0.70;91.70
9980;DHT22;5030;51.532;6.766;2022-12-18T16:11:29;0.60;92.20
9980;DHT22;5030;51.532;6.766;2022-12-18T16:14:18;0.50;93.00
9980;DHT22;5030;51.532;6.766;2022-12-18T16:16:46;0.50;93.20
9980;DHT22;5030;51.532;6.766;2022-12-18T16:19:12;0.60;94.00
9980;DHT22;5030;51.532;6.766;2022-12-18T16:21:38;0.50;93.70
9980;DHT22;5030;51.532;6.766;2022-12-18T16:24:04;0.50;93.70
9980;DHT22;5030;51.532;6.766;2022-12-18T16:26:32;0.60;93.80
9980;DHT22;5030;51.532;6.766;2022-12-18T16:28:58;0.60;92.20
9980;DHT22;5030;51.532;6.766;2022-12-18T16:31:24;0.70;92.40
9980;DHT22;5030;51.532;6.766;2022-12-18T16:33:49;0.70;93.20
9980;DHT22;5030;51.532;6.766;2022-12-18T16:36:15;0.70;92.90
9980;DHT22;5030;51.532;6.766;2022-12-18T16:38:40;0.70;92.80
9980;DHT22;5030;51.532;6.766;2022-12-18T16:41:18;0.80;92.90
9980;DHT22;5030;51.532;6.766;2022-12-18T16:43:56;0.70;92.40
9980;DHT22;5030;51.532;6.766;2022-12-18T16:46:22;0.70;93.80
9980;DHT22;5030;51.532;6.766;2022-12-18T16:48:48;0.60;94.30
9980;DHT22;5030;51.532;6.766;2022-12-18T16:51:13;0.60;95.60
9980;DHT22;5030;51.532;6.766;2022-12-18T16:53:39;0.70;94.90
9980;DHT22;5030;51.532;6.766;2022-12-18T16:56:05;0.70;95.10
9980;DHT22;5030;51.532;6.766;2022-12-18T16:58:31;0.60;95.30
9980;DHT22;5030;51.532;6.766;2022-12-18T17:00:57;0.60;96.20
9980;DHT22;5030;51.532;6.766;2022-12-18T17:03:23;0.50;97.50
9980;DHT22;5030;51.532;6.766;2022-12-18T17:05:48;0.50;97.90
9980;DHT22;5030;51.532;6.766;2022-12-18T17:08:14;0.60;97.20
9980;DHT22;5030;51.532;6.766;2022-12-18T17:10:40;0.50;98.40
9980;DHT22;5030;51.532;6.766;2022-12-18T17:13:06;0.60;98.80
9980;DHT22;5030;51.532;6.766;2022-12-18T17:15:35;0.60;98.30
9980;DHT22;5030;51.532;6.766;2022-12-18T17:18:01;0.50;98.80
9980;DHT22;5030;51.532;6.766;2022-12-18T17:20:27;0.50;99.40
9980;DHT22;5030;51.532;6.766;2022-12-18T17:22:54;0.50;99.90
9980;DHT22;5030;51.532;6.766;2022-12-18T17:25:23;0.40;99.90
9980;DHT22;5030;51.532;6.766;2022-12-18T17:27:50;0.50;99.90
9980;DHT22;5030;51.532;6.766;2022-12-18T17:30:16;0.50;99.90
9980;DHT22;5030;51.532;6.766;2022-12-18T17:32:41;0.50;99.90
9980;DHT22;5030;51.532;6.766;2022-12-18T17:35:07;0.50;99.90
9980;DHT22;5030;51.532;6.766;2022-12-18T17:37:33;0.50;99.90
9980;DHT22;5030;51.532;6.766;2022-12-18T17:39:58;0.60;99.90
9980;DHT22;5030;51.532;6.766;2022-12-18T17:42:24;0.50;99.90
9980;DHT22;5030;51.532;6.766;2022-12-18T17:44:50;0.50;99.90
9980;DHT22;5030;51.532;6.766;2022-12-18T17:47:17;0.50;99.90
9980;DHT22;5030;51.532;6.766;2022-12-18T17:49:42;0.50;99.90
9980;DHT22;5030;51.532;6.766;2022-12-18T17:52:08;0.50;99.90
9980;DHT22;5030;51.532;6.766;2022-12-18T17:54:34;0.50;99.90
9980;DHT22;5030;51.532;6.766;2022-12-18T17:57:04;0.50;99.90
9980;DHT22;5030;51.532;6.766;2022-12-18T17:59:30;0.60;99.90
9980;DHT22;5030;51.532;6.766;2022-12-18T18:01:55;0.60;99.90
9980;DHT22;5030;51.532;6.766;2022-12-18T18:04:21;0.60;99.90
9980;DHT22;5030;51.532;6.766;2022-12-18T18:06:47;0.60;99.90
9980;DHT22;5030;51.532;6.766;2022-12-18T18:09:13;0.60;99.90
9980;DHT22;5030;51.532;6.766;2022-12-18T18:11:38;0.50;99.90
9980;DHT22;5030;51.532;6.766;2022-12-18T18:14:22;0.50;99.90
9980;DHT22;5030;51.532;6.766;2022-12-18T18:16:49;0.40;99.90
9980;DHT22;5030;51.532;6.766;2022-12-18T18:19:21;0.50;99.90
9980;DHT22;5030;51.532;6.766;2022-12-18T18:21:49;0.50;99.90
9980;DHT22;5030;51.532;6.766;2022-12-18T18:24:17;0.50;99.90
9980;DHT22;5030;51.532;6.766;2022-12-18T18:26:44;0.40;99.90
9980;DHT22;5030;51.532;6.766;2022-12-18T18:29:16;0.40;99.90
9980;DHT22;5030;51.532;6.766;2022-12-18T18:31:43;0.50;99.90
9980;DHT22;5030;51.532;6.766;2022-12-18T18:34:17;0.40;99.90
9980;DHT22;5030;51.532;6.766;2022-12-18T18:36:43;0.40;99.90
9980;DHT22;5030;51.532;6.766;2022-12-18T18:39:11;0.40;99.90
9980;DHT22;5030;51.532;6.766;2022-12-18T18:41:36;0.40;99.90
9980;DHT22;5030;51.532;6.766;2022-12-18T18:44:02;0.40;99.90
9980;DHT22;5030;51.532;6.766;2022-12-18T18:46:28;0.40;99.90
9980;DHT22;5030;51.532;6.766;2022-12-18T18:48:55;0.40;99.90
9980;DHT22;5030;51.532;6.766;2022-12-18T18:51:21;0.40;99.90
9980;DHT22;5030;51.532;6.766;2022-12-18T18:53:49;0.40;99.90
9980;DHT22;5030;51.532;6.766;2022-12-18T18:56:17;0.40;99.90